Time;durP1;ratioP1;P1;durP2;ratioP2;P2;SDS_P1;SDS_P2;PMS_P1;PMS_P2;Temp;Humidity;BMP_temperature;BMP_pressure;BME280_temperature;BME280_humidity;BME280_pressure;Samples;Min_cycle;Max_cycle;Signal;HPM_P1;HPM_P2
2023/12/21 00:02:17;;;;;;;0.70;0.68;;;19.00;58.10;;;;;;5099461;28;20208;-74
2023/12/21 00:04:43;;;;;;;0.85;0.50;;;19.00;58.20;;;;;;5097345;28;20180;-74
2023/12/21 00:07:09;;;;;;;0.80;0.60;;;19.00;58.10;;;;;;5075735;28;20279;-75
2023/12/21 00:09:35;;;;;;;0.90;0.52;;;19.00;58.20;;;;;;5078816;28;20190;-76
2023/12/21 00:12:01;;;;;;;0.77;0.77;;;19.10;58.20;;;;;;5101797;28;20607;-74
2023/12/21 00:14:30;;;;;;;0.75;0.60;;;19.00;58.10;;;;;;5118784;27;20249;-74
2023/12/21 00:16:56;;;;;;;0.60;0.50;;;19.10;58.20;;;;;;5117727;27;20181;-74
2023/12/21 00:19:22;;;;;;;0.63;0.63;;;19.00;58.20;;;;;;5107403;28;20176;-74
2023/12/21 00:21:48;;;;;;;0.93;0.73;;;19.00;58.10;;;;;;5083146;28;20300;-73
2023/12/21 00:24:14;;;;;;;0.80;0.60;;;19.10;58.20;;;;;;5099345;28;20182;-74
2023/12/21 00:26:39;;;;;;;0.60;0.60;;;19.00;58.10;;;;;;5085968;28;20616;-73
2023/12/21 00:29:08;;;;;;;0.70;0.60;;;19.00;58.10;;;;;;5080890;28;20188;-77
2023/12/21 00:31:33;;;;;;;0.60;0.50;;;19.00;58.10;;;;;;5095290;28;20200;-73
2023/12/21 00:33:59;;;;;;;0.77;0.60;;;19.00;58.10;;;;;;5083000;28;20190;-74
2023/12/21 00:36:25;;;;;;;0.60;0.60;;;19.10;58.20;;;;;;5098446;28;20185;-74
2023/12/21 00:38:50;;;;;;;0.50;0.50;;;19.00;58.10;;;;;;5090393;28;20180;-74
2023/12/21 00:41:16;;;;;;;0.82;0.80;;;19.10;58.20;;;;;;5078479;28;20205;-74
2023/12/21 00:43:42;;;;;;;0.57;0.57;;;19.10;58.20;;;;;;5074846;28;20184;-73
2023/12/21 00:46:08;;;;;;;0.80;0.70;;;19.00;58.10;;;;;;5074442;28;20193;-73
2023/12/21 00:48:33;;;;;;;0.60;0.60;;;19.00;58.00;;;;;;5082380;28;20222;-74
2023/12/21 00:50:59;;;;;;;0.43;0.43;;;19.00;58.10;;;;;;5086771;28;20204;-74
2023/12/21 00:53:25;;;;;;;0.50;0.50;;;19.00;58.00;;;;;;5085027;28;20212;-73
2023/12/21 00:55:50;;;;;;;1.35;0.75;;;19.10;58.10;;;;;;5080278;28;20213;-73
2023/12/21 00:58:16;;;;;;;0.68;0.60;;;19.00;58.10;;;;;;5098152;28;20193;-73
2023/12/21 01:00:42;;;;;;;0.63;0.60;;;19.00;58.00;;;;;;5085242;28;20183;-74
2023/12/21 01:03:08;;;;;;;1.00;0.70;;;19.00;58.00;;;;;;5096079;28;20214;-73
2023/12/21 01:05:34;;;;;;;0.63;0.43;;;19.00;58.00;;;;;;5089827;28;20184;-74
2023/12/21 01:08:00;;;;;;;0.77;0.77;;;19.00;58.00;;;;;;5094095;28;20238;-73
2023/12/21 01:10:25;;;;;;;0.93;0.60;;;19.00;58.10;;;;;;5105467;28;20181;-73
2023/12/21 01:12:51;;;;;;;0.70;0.70;;;19.10;58.20;;;;;;5085676;28;20200;-74
2023/12/21 01:15:17;;;;;;;0.70;0.60;;;19.00;58.10;;;;;;5098907;28;20220;-74
2023/12/21 01:17:43;;;;;;;0.60;0.60;;;19.00;58.00;;;;;;5089533;28;20176;-73
2023/12/21 01:20:10;;;;;;;1.25;0.70;;;19.00;58.10;;;;;;5103530;28;20176;-74
2023/12/21 01:22:35;;;;;;;0.55;0.50;;;19.00;58.00;;;;;;5077839;28;20200;-73
2023/12/21 01:25:01;;;;;;;0.52;0.50;;;19.00;58.00;;;;;;5098897;28;20194;-73
2023/12/21 01:27:28;;;;;;;0.70;0.60;;;19.00;58.00;;;;;;5087098;28;20360;-73
2023/12/21 01:29:53;;;;;;;1.05;0.70;;;19.00;58.00;;;;;;5082932;28;20176;-73
2023/12/21 01:32:19;;;;;;;1.25;0.70;;;19.00;58.00;;;;;;5109058;28;20209;-74
2023/12/21 01:34:45;;;;;;;0.43;0.43;;;19.00;58.00;;;;;;5078200;28;20242;-74
2023/12/21 01:37:11;;;;;;;0.75;0.60;;;19.00;58.00;;;;;;5079399;28;20274;-74
2023/12/21 01:39:38;;;;;;;0.98;0.50;;;19.10;58.10;;;;;;5101442;28;20264;-73
2023/12/21 01:42:04;;;;;;;0.60;0.60;;;19.00;58.60;;;;;;5082766;28;20729;-74
2023/12/21 01:44:29;;;;;;;0.60;0.60;;;19.00;58.00;;;;;;5105245;28;20192;-73
2023/12/21 01:46:55;;;;;;;0.50;0.50;;;19.00;58.00;;;;;;5090555;28;20279;-73
2023/12/21 01:49:21;;;;;;;0.65;0.65;;;19.00;58.00;;;;;;5100605;28;20188;-74
2023/12/21 01:51:48;;;;;;;0.70;0.60;;;19.00;58.00;;;;;;5090295;28;20216;-74
2023/12/21 01:54:14;;;;;;;0.63;0.50;;;19.00;58.00;;;;;;5119739;28;20208;-73
2023/12/21 01:56:41;;;;;;;0.82;0.60;;;19.00;58.60;;;;;;5112719;28;20557;-75
2023/12/21 01:59:07;;;;;;;0.73;0.50;;;19.00;58.00;;;;;;5104559;28;20180;-73
2023/12/21 02:01:33;;;;;;;0.65;0.50;;;19.00;58.00;;;;;;5084736;28;20711;-72
2023/12/21 02:04:00;;;;;;;1.40;0.60;;;19.00;58.00;;;;;;5090169;28;20193;-73
2023/12/21 02:06:25;;;;;;;0.68;0.68;;;19.00;58.00;;;;;;5103227;28;20199;-73
2023/12/21 02:08:51;;;;;;;0.60;0.60;;;19.00;58.00;;;;;;5116594;28;20214;-74
2023/12/21 02:11:17;;;;;;;0.45;0.45;;;19.00;58.00;;;;;;5085022;28;20208;-73
2023/12/21 02:13:43;;;;;;;0.80;0.50;;;19.00;58.00;;;;;;5082511;28;20192;-73
2023/12/21 02:16:16;;;;;;;0.50;0.45;;;19.00;58.00;;;;;;5103507;28;20216;-73
2023/12/21 02:18:43;;;;;;;0.63;0.60;;;19.00;58.00;;;;;;5096650;28;20180;-73
2023/12/21 02:21:12;;;;;;;0.75;0.50;;;19.00;58.00;;;;;;5071656;28;20193;-73
2023/12/21 02:23:42;;;;;;;1.35;0.55;;;19.00;58.00;;;;;;5082868;28;20213;-73
2023/12/21 02:26:10;;;;;;;0.50;0.50;;;19.00;58.00;;;;;;5094104;28;20192;-73
2023/12/21 02:28:36;;;;;;;0.50;0.40;;;19.00;58.00;;;;;;5090734;28;20184;-73
2023/12/21 02:31:02;;;;;;;0.88;0.50;;;19.00;57.90;;;;;;5121878;28;20345;-73
2023/12/21 02:33:27;;;;;;;0.60;0.60;;;19.00;58.00;;;;;;5078584;28;20229;-73
2023/12/21 02:35:53;;;;;;;0.65;0.47;;;19.00;58.00;;;;;;5101125;28;20219;-74
2023/12/21 02:38:19;;;;;;;0.60;0.60;;;19.00;58.00;;;;;;5084188;28;20177;-74
2023/12/21 02:40:44;;;;;;;0.35;0.35;;;19.00;58.50;;;;;;5102798;28;20177;-73
2023/12/21 02:43:10;;;;;;;0.40;0.40;;;19.10;58.00;;;;;;5073950;28;20188;-73
2023/12/21 02:45:36;;;;;;;0.55;0.55;;;19.00;58.00;;;;;;5078380;28;20582;-73
2023/12/21 02:48:02;;;;;;;0.60;0.60;;;19.00;58.00;;;;;;5076387;28;20186;-74
2023/12/21 02:50:27;;;;;;;0.40;0.40;;;19.00;58.00;;;;;;5119275;27;20191;-73
2023/12/21 02:52:53;;;;;;;0.40;0.40;;;19.10;58.10;;;;;;5094984;28;20188;-73
2023/12/21 02:55:19;;;;;;;0.80;0.60;;;19.00;58.00;;;;;;5101805;28;20212;-72
2023/12/21 02:57:44;;;;;;;0.93;0.40;;;19.00;58.00;;;;;;5076707;28;20223;-73
2023/12/21 03:00:11;;;;;;;0.50;0.50;;;19.00;57.90;;;;;;5098535;28;20370;-73
2023/12/21 03:02:37;;;;;;;0.47;0.47;;;19.00;58.00;;;;;;5102127;28;20188;-73
2023/12/21 03:05:03;;;;;;;0.52;0.50;;;19.00;58.00;;;;;;5104040;28;20198;-73
2023/12/21 03:07:28;;;;;;;0.50;0.50;;;19.00;58.00;;;;;;5089927;28;20193;-73
2023/12/21 03:09:55;;;;;;;0.50;0.50;;;19.00;58.00;;;;;;5073264;28;20189;-74
2023/12/21 03:12:21;;;;;;;0.47;0.35;;;19.00;58.00;;;;;;5092957;28;20576;-73
2023/12/21 03:14:47;;;;;;;0.52;0.52;;;19.10;58.00;;;;;;5094168;28;20217;-73
2023/12/21 03:17:13;;;;;;;0.40;0.40;;;19.00;57.90;;;;;;5095569;28;20185;-74
2023/12/21 03:19:38;;;;;;;0.30;0.30;;;19.00;57.90;;;;;;5096195;28;20184;-75
2023/12/21 03:22:04;;;;;;;0.50;0.50;;;19.00;58.00;;;;;;5104942;28;20204;-73
2023/12/21 03:24:31;;;;;;;0.40;0.40;;;19.00;58.00;;;;;;5100296;28;20193;-73
2023/12/21 03:26:57;;;;;;;0.63;0.38;;;19.10;58.00;;;;;;5089083;28;20284;-73
2023/12/21 03:29:23;;;;;;;0.45;0.45;;;19.00;58.00;;;;;;5080981;28;20290;-75
2023/12/21 03:31:48;;;;;;;0.50;0.50;;;19.10;58.00;;;;;;5092438;28;20228;-73
2023/12/21 03:34:14;;;;;;;0.35;0.35;;;19.00;57.90;;;;;;5102252;28;20188;-76
2023/12/21 03:36:40;;;;;;;0.40;0.40;;;19.00;57.90;;;;;;5107285;28;20173;-73
2023/12/21 03:39:07;;;;;;;0.40;0.40;;;19.10;58.00;;;;;;5075539;28;20185;-73
2023/12/21 03:41:32;;;;;;;0.28;0.28;;;19.10;58.00;;;;;;5094673;28;20266;-73
2023/12/21 03:43:58;;;;;;;0.40;0.40;;;19.10;58.00;;;;;;5080392;28;20225;-74
2023/12/21 03:46:24;;;;;;;0.40;0.30;;;19.00;57.90;;;;;;5098670;28;20572;-73
2023/12/21 03:48:50;;;;;;;0.55;0.50;;;19.10;58.00;;;;;;5105828;28;20247;-73
2023/12/21 03:51:17;;;;;;;0.65;0.40;;;19.10;58.00;;;;;;5097361;28;20748;-72
2023/12/21 03:53:42;;;;;;;0.32;0.30;;;19.10;58.10;;;;;;5085514;28;20230;-74
2023/12/21 03:56:08;;;;;;;0.55;0.55;;;19.10;58.00;;;;;;5093930;28;20256;-73
2023/12/21 03:58:36;;;;;;;0.30;0.30;;;19.10;58.00;;;;;;5086723;28;20177;-73
2023/12/21 04:01:02;;;;;;;0.40;0.40;;;19.10;58.00;;;;;;5111003;27;20201;-73
2023/12/21 04:03:28;;;;;;;0.35;0.30;;;19.00;57.90;;;;;;5100467;28;20267;-73
2023/12/21 04:05:54;;;;;;;0.30;0.30;;;19.00;58.00;;;;;;5099308;28;20691;-73
2023/12/21 04:08:21;;;;;;;0.40;0.40;;;19.10;58.00;;;;;;5094066;28;20190;-73
2023/12/21 04:10:47;;;;;;;0.50;0.50;;;19.00;58.00;;;;;;5100270;28;20214;-73
2023/12/21 04:13:14;;;;;;;0.40;0.40;;;19.00;58.00;;;;;;5114478;27;20188;-73
2023/12/21 04:15:40;;;;;;;1.25;0.43;;;19.00;58.00;;;;;;5105062;28;20249;-73
2023/12/21 04:18:05;;;;;;;0.40;0.40;;;19.00;58.00;;;;;;5098021;28;20181;-73
2023/12/21 04:20:31;;;;;;;0.50;0.40;;;19.00;58.00;;;;;;5101351;28;20659;-73
2023/12/21 04:22:57;;;;;;;0.38;0.38;;;19.10;58.00;;;;;;5079601;28;20209;-74
2023/12/21 04:25:22;;;;;;;0.40;0.30;;;19.10;58.00;;;;;;5097478;28;20189;-74
2023/12/21 04:27:48;;;;;;;0.50;0.50;;;19.00;58.00;;;;;;5095433;28;20678;-73
2023/12/21 04:30:14;;;;;;;0.32;0.32;;;19.10;58.00;;;;;;5097525;28;20188;-73
2023/12/21 04:32:41;;;;;;;0.30;0.30;;;19.10;58.00;;;;;;5087653;28;20208;-73
2023/12/21 04:35:10;;;;;;;0.30;0.30;;;19.00;58.00;;;;;;5088102;28;20208;-72
2023/12/21 04:37:36;;;;;;;0.30;0.30;;;19.00;58.00;;;;;;5079342;28;20181;-74
2023/12/21 04:40:03;;;;;;;0.30;0.30;;;19.10;58.00;;;;;;5092396;28;20260;-74
2023/12/21 04:42:30;;;;;;;0.40;0.40;;;19.00;58.00;;;;;;5099322;28;20763;-73
2023/12/21 04:44:56;;;;;;;0.30;0.30;;;19.10;58.70;;;;;;5092614;28;20189;-73
2023/12/21 04:47:22;;;;;;;0.30;0.30;;;19.10;58.00;;;;;;5096570;28;20332;-74
2023/12/21 04:49:47;;;;;;;0.50;0.50;;;19.00;57.90;;;;;;5099726;28;20200;-73
2023/12/21 04:52:13;;;;;;;0.30;0.30;;;19.10;58.00;;;;;;5074320;28;20208;-74
2023/12/21 04:54:40;;;;;;;0.30;0.30;;;19.10;58.00;;;;;;5095984;28;20208;-73
2023/12/21 04:57:05;;;;;;;0.30;0.30;;;19.00;58.00;;;;;;5074498;28;20567;-73
2023/12/21 04:59:31;;;;;;;0.30;0.30;;;19.00;58.00;;;;;;5095582;28;20191;-72
2023/12/21 05:01:58;;;;;;;0.40;0.40;;;19.00;58.00;;;;;;5096839;28;20215;-73
2023/12/21 05:04:24;;;;;;;0.60;0.60;;;19.10;58.10;;;;;;5096374;28;20183;-73
2023/12/21 05:06:50;;;;;;;0.30;0.30;;;19.00;58.00;;;;;;5082347;28;20187;-73
2023/12/21 05:09:15;;;;;;;0.43;0.40;;;19.00;58.00;;;;;;5078717;28;20185;-73
2023/12/21 05:11:41;;;;;;;0.32;0.32;;;19.00;58.00;;;;;;5093839;28;20210;-73
2023/12/21 05:14:07;;;;;;;0.40;0.40;;;19.10;58.10;;;;;;5096112;28;20184;-74
2023/12/21 05:16:33;;;;;;;0.40;0.40;;;19.10;58.10;;;;;;5088335;28;20322;-74
2023/12/21 05:18:58;;;;;;;0.43;0.43;;;19.10;58.00;;;;;;5115024;27;20202;-74
2023/12/21 05:21:24;;;;;;;0.35;0.30;;;19.00;58.00;;;;;;5103149;28;20212;-74
2023/12/21 05:23:50;;;;;;;0.50;0.50;;;19.10;58.10;;;;;;5078385;28;20196;-74
2023/12/21 05:26:16;;;;;;;0.30;0.30;;;19.10;58.10;;;;;;5078510;28;20195;-74
2023/12/21 05:28:42;;;;;;;0.30;0.30;;;19.10;58.00;;;;;;5098132;28;20643;-73
2023/12/21 05:31:08;;;;;;;0.40;0.40;;;19.10;58.00;;;;;;5100909;28;20220;-73
2023/12/21 05:33:35;;;;;;;0.30;0.30;;;19.10;58.00;;;;;;5078071;28;20180;-75
2023/12/21 05:36:02;;;;;;;0.30;0.30;;;19.10;58.00;;;;;;5090752;28;20200;-73
2023/12/21 05:38:29;;;;;;;0.30;0.30;;;19.10;58.10;;;;;;5097308;28;20704;-74
2023/12/21 05:40:54;;;;;;;0.45;0.45;;;19.10;58.10;;;;;;5077018;28;20710;-73
2023/12/21 05:43:21;;;;;;;0.40;0.30;;;19.10;58.00;;;;;;5103468;28;20181;-73
2023/12/21 05:45:47;;;;;;;0.30;0.30;;;19.10;58.00;;;;;;5077726;28;20221;-74
2023/12/21 05:48:13;;;;;;;0.47;0.47;;;19.00;57.90;;;;;;5078853;28;20184;-74
2023/12/21 05:50:38;;;;;;;0.32;0.30;;;19.10;58.10;;;;;;5091563;28;20210;-74
2023/12/21 05:53:04;;;;;;;0.20;0.20;;;19.00;58.00;;;;;;5095019;28;20199;-74
2023/12/21 05:55:31;;;;;;;1.50;0.45;;;19.10;58.10;;;;;;5079112;28;20217;-73
2023/12/21 05:57:56;;;;;;;0.40;0.20;;;19.00;58.10;;;;;;5101782;28;20180;-74
2023/12/21 06:00:22;;;;;;;0.40;0.30;;;19.00;58.10;;;;;;5103148;28;20188;-74
2023/12/21 06:02:48;;;;;;;0.40;0.40;;;19.00;58.10;;;;;;5082039;28;20208;-75
2023/12/21 06:05:14;;;;;;;0.40;0.40;;;19.00;58.00;;;;;;5077927;28;20695;-73
2023/12/21 06:07:40;;;;;;;0.25;0.25;;;19.00;58.10;;;;;;5103436;28;20189;-74
2023/12/21 06:10:08;;;;;;;0.35;0.35;;;19.00;58.00;;;;;;5095401;28;20216;-72
2023/12/21 06:12:34;;;;;;;1.45;0.40;;;19.00;58.00;;;;;;5096243;28;20279;-70
2023/12/21 06:15:00;;;;;;;0.40;0.40;;;19.10;58.10;;;;;;5102233;28;20695;-72
2023/12/21 06:17:26;;;;;;;0.45;0.45;;;19.00;58.10;;;;;;5090984;28;20181;-72
2023/12/21 06:19:51;;;;;;;0.40;0.40;;;19.00;58.00;;;;;;5099386;28;20215;-74
2023/12/21 06:22:18;;;;;;;0.43;0.40;;;19.00;58.00;;;;;;5098619;28;20288;-73
2023/12/21 06:24:44;;;;;;;0.40;0.40;;;19.00;58.10;;;;;;5078183;28;20195;-74
2023/12/21 06:27:09;;;;;;;0.43;0.43;;;19.10;58.10;;;;;;5099019;28;20184;-73
2023/12/21 06:29:35;;;;;;;0.30;0.30;;;19.10;58.10;;;;;;5086770;28;20181;-74
2023/12/21 06:32:01;;;;;;;0.47;0.43;;;19.10;58.10;;;;;;5097818;28;20282;-73
2023/12/21 06:34:27;;;;;;;0.38;0.38;;;19.10;58.10;;;;;;5110323;28;20192;-72
2023/12/21 06:36:52;;;;;;;0.52;0.50;;;19.10;58.10;;;;;;5083352;28;20211;-72
2023/12/21 06:39:18;;;;;;;0.50;0.40;;;19.10;58.20;;;;;;5088898;28;20241;-76
2023/12/21 06:41:45;;;;;;;0.55;0.30;;;19.10;58.10;;;;;;5100120;28;20198;-74
2023/12/21 06:44:11;;;;;;;0.60;0.60;;;19.10;58.10;;;;;;5095656;28;20207;-73
2023/12/21 06:46:37;;;;;;;0.45;0.40;;;19.10;58.20;;;;;;5091990;28;20189;-73
2023/12/21 06:49:03;;;;;;;1.02;0.40;;;19.10;58.20;;;;;;5080575;28;20184;-74
2023/12/21 06:51:28;;;;;;;0.73;0.65;;;19.10;58.80;;;;;;5111231;28;20240;-74
2023/12/21 06:53:54;;;;;;;0.43;0.43;;;19.10;58.20;;;;;;5087838;28;20172;-74
2023/12/21 06:56:20;;;;;;;0.95;0.60;;;19.00;58.10;;;;;;5089565;28;20209;-73
2023/12/21 06:58:45;;;;;;;0.50;0.50;;;19.10;58.20;;;;;;5106548;28;20185;-74
2023/12/21 07:01:12;;;;;;;0.50;0.50;;;19.10;58.30;;;;;;5103945;28;20224;-72
2023/12/21 07:03:37;;;;;;;0.57;0.57;;;19.10;58.20;;;;;;5082271;28;20185;-74
2023/12/21 07:06:03;;;;;;;0.80;0.57;;;19.00;58.10;;;;;;5116991;27;20184;-73
2023/12/21 07:08:29;;;;;;;1.38;0.43;;;19.00;58.10;;;;;;5101415;28;20210;-72
2023/12/21 07:10:55;;;;;;;1.25;0.50;;;19.00;58.10;;;;;;5095994;28;20247;-74
2023/12/21 07:13:21;;;;;;;0.50;0.50;;;19.00;58.10;;;;;;5100899;28;20229;-74
2023/12/21 07:15:46;;;;;;;1.10;0.50;;;19.00;58.10;;;;;;5092700;28;20215;-74
2023/12/21 07:18:12;;;;;;;0.43;0.40;;;19.00;58.70;;;;;;5101882;28;20177;-73
2023/12/21 07:20:38;;;;;;;0.57;0.50;;;19.10;58.20;;;;;;5104609;28;20264;-73
2023/12/21 07:23:04;;;;;;;0.60;0.60;;;19.10;58.20;;;;;;5077729;28;20176;-73
2023/12/21 07:25:30;;;;;;;0.68;0.68;;;19.10;58.20;;;;;;5076975;28;20178;-74
2023/12/21 07:27:55;;;;;;;0.60;0.40;;;19.10;58.10;;;;;;5094001;28;20187;-74
2023/12/21 07:30:21;;;;;;;0.73;0.73;;;19.00;58.10;;;;;;5067444;28;20186;-74
2023/12/21 07:32:47;;;;;;;1.10;0.40;;;19.10;58.20;;;;;;5096027;28;20215;-74
2023/12/21 07:35:12;;;;;;;1.10;0.60;;;19.10;58.20;;;;;;5075372;28;20213;-74
2023/12/21 07:37:38;;;;;;;0.55;0.50;;;19.10;58.20;;;;;;5088622;28;20173;-73
2023/12/21 07:40:05;;;;;;;1.95;0.60;;;19.00;58.10;;;;;;5096405;28;20735;-74
2023/12/21 07:42:30;;;;;;;0.93;0.50;;;19.10;58.30;;;;;;5079524;28;20209;-73
2023/12/21 07:44:56;;;;;;;0.40;0.40;;;19.10;58.20;;;;;;5077584;28;20187;-74
2023/12/21 07:47:22;;;;;;;0.90;0.60;;;19.10;58.20;;;;;;5071675;28;20211;-75
2023/12/21 07:49:48;;;;;;;1.08;0.60;;;19.10;58.20;;;;;;5082214;28;20188;-74
2023/12/21 07:52:14;;;;;;;0.80;0.50;;;19.10;58.30;;;;;;5101699;28;20215;-73
2023/12/21 07:54:39;;;;;;;1.25;0.60;;;19.10;58.20;;;;;;5097586;28;20219;-73
2023/12/21 07:57:05;;;;;;;1.20;0.45;;;19.00;58.10;;;;;;5074976;28;20203;-74
2023/12/21 07:59:31;;;;;;;0.63;0.63;;;19.00;58.10;;;;;;5090285;28;20199;-75
2023/12/21 08:01:57;;;;;;;1.17;0.50;;;19.10;58.20;;;;;;5094843;28;20209;-74
2023/12/21 08:04:22;;;;;;;0.63;0.40;;;19.10;58.20;;;;;;5092141;28;20181;-73
2023/12/21 08:06:48;;;;;;;0.40;0.40;;;19.10;58.20;;;;;;5091878;28;20274;-73
2023/12/21 08:09:15;;;;;;;0.65;0.60;;;19.10;58.20;;;;;;5078841;28;20186;-74
2023/12/21 08:11:41;;;;;;;0.50;0.50;;;19.10;58.20;;;;;;5090192;28;20209;-74
2023/12/21 08:14:07;;;;;;;1.05;0.68;;;19.10;58.20;;;;;;5081779;28;20656;-75
2023/12/21 08:16:32;;;;;;;0.50;0.50;;;19.10;58.30;;;;;;5104943;28;20207;-74
2023/12/21 08:18:58;;;;;;;0.50;0.40;;;19.10;58.20;;;;;;5087959;28;20181;-74
2023/12/21 08:21:24;;;;;;;0.95;0.55;;;19.10;58.20;;;;;;5086751;28;20196;-74
2023/12/21 08:23:50;;;;;;;0.45;0.45;;;19.10;58.20;;;;;;5091682;28;20181;-74
2023/12/21 08:26:16;;;;;;;0.60;0.60;;;19.10;58.20;;;;;;5075053;28;20221;-73
2023/12/21 08:28:42;;;;;;;0.40;0.40;;;19.10;58.30;;;;;;5090176;28;20244;-74
2023/12/21 08:31:08;;;;;;;1.33;0.40;;;19.10;58.20;;;;;;5091490;28;20645;-74
2023/12/21 08:33:35;;;;;;;0.50;0.50;;;19.10;58.30;;;;;;5091338;28;20200;-73
2023/12/21 08:36:01;;;;;;;0.43;0.43;;;19.10;58.20;;;;;;5098042;28;20211;-74
2023/12/21 08:38:27;;;;;;;0.40;0.40;;;19.10;58.20;;;;;;5114999;27;20177;-74
2023/12/21 08:40:52;;;;;;;0.50;0.50;;;19.10;58.20;;;;;;5111268;28;20215;-74
2023/12/21 08:43:18;;;;;;;0.57;0.50;;;19.10;58.30;;;;;;5099319;28;20187;-74
2023/12/21 08:45:44;;;;;;;0.73;0.50;;;19.00;58.20;;;;;;5094558;28;20185;-73
2023/12/21 08:48:10;;;;;;;0.40;0.40;;;19.10;58.30;;;;;;5078660;28;20183;-74
2023/12/21 08:50:35;;;;;;;0.82;0.60;;;19.10;58.20;;;;;;5091829;28;20181;-74
2023/12/21 08:53:02;;;;;;;0.80;0.50;;;19.10;58.50;;;;;;5110284;27;20193;-74
2023/12/21 08:55:29;;;;;;;0.60;0.60;;;19.10;58.30;;;;;;5102925;28;20745;-73
2023/12/21 08:57:59;;;;;;;0.50;0.50;;;19.10;58.30;;;;;;5098123;28;20215;-74
2023/12/21 09:00:25;;;;;;;1.08;0.60;;;19.10;58.30;;;;;;5091905;28;20190;-74
2023/12/21 09:02:51;;;;;;;0.47;0.47;;;19.10;58.30;;;;;;5088208;28;20199;-74
2023/12/21 09:05:16;;;;;;;0.50;0.40;;;19.10;58.30;;;;;;5071684;28;20174;-73
2023/12/21 09:07:42;;;;;;;1.75;0.30;;;19.10;58.80;;;;;;5095292;28;20261;-74
2023/12/21 09:10:08;;;;;;;0.75;0.57;;;19.10;58.20;;;;;;5094056;28;20188;-74
2023/12/21 09:12:35;;;;;;;0.50;0.40;;;19.10;58.30;;;;;;5077519;28;20228;-74
2023/12/21 09:15:02;;;;;;;1.20;0.50;;;19.10;58.30;;;;;;5095728;28;20349;-73
2023/12/21 09:17:29;;;;;;;0.60;0.60;;;19.10;58.30;;;;;;5094482;28;20627;-74
2023/12/21 09:19:54;;;;;;;0.50;0.50;;;19.10;58.30;;;;;;5081048;28;20186;-74
2023/12/21 09:22:21;;;;;;;0.30;0.30;;;19.10;58.30;;;;;;5070133;28;20236;-74
2023/12/21 09:24:47;;;;;;;0.50;0.50;;;19.10;58.30;;;;;;5079843;28;20198;-75
2023/12/21 09:27:15;;;;;;;0.50;0.50;;;19.10;58.20;;;;;;5080096;28;20263;-73
2023/12/21 09:29:44;;;;;;;0.35;0.35;;;19.10;58.30;;;;;;5092146;28;20319;-74
2023/12/21 09:32:10;;;;;;;0.70;0.47;;;19.10;58.90;;;;;;5098639;28;20211;-74
2023/12/21 09:34:36;;;;;;;0.30;0.30;;;19.10;58.30;;;;;;5088454;28;20211;-74
2023/12/21 09:37:05;;;;;;;0.30;0.30;;;19.10;58.90;;;;;;5098625;28;20188;-74
2023/12/21 09:39:31;;;;;;;0.30;0.30;;;19.10;58.30;;;;;;5096370;28;20204;-74
2023/12/21 09:42:00;;;;;;;0.40;0.40;;;19.10;58.30;;;;;;5076716;28;20286;-74
2023/12/21 09:44:31;;;;;;;0.40;0.40;;;19.10;58.30;;;;;;5079271;28;20765;-74
2023/12/21 09:46:58;;;;;;;0.38;0.30;;;19.10;58.30;;;;;;5090551;28;20173;-74
2023/12/21 09:49:24;;;;;;;0.30;0.30;;;19.10;58.30;;;;;;5090327;28;20192;-73
2023/12/21 09:51:51;;;;;;;0.50;0.50;;;19.10;58.30;;;;;;5089598;28;20201;-74
2023/12/21 09:54:18;;;;;;;0.40;0.40;;;19.10;58.30;;;;;;5086203;28;20192;-73
2023/12/21 09:56:50;;;;;;;0.55;0.55;;;19.10;58.30;;;;;;5091881;28;20239;-74
2023/12/21 09:59:16;;;;;;;1.08;0.50;;;19.10;58.30;;;;;;5078186;28;20651;-74
2023/12/21 10:01:42;;;;;;;0.50;0.50;;;19.10;58.30;;;;;;5108393;28;20256;-74
2023/12/21 10:04:08;;;;;;;0.52;0.30;;;19.10;58.30;;;;;;5100247;28;20275;-74
2023/12/21 10:06:35;;;;;;;0.32;0.32;;;19.10;58.30;;;;;;5094900;28;20181;-74
2023/12/21 10:09:04;;;;;;;0.40;0.32;;;19.10;58.30;;;;;;5099438;28;20188;-73
2023/12/21 10:11:31;;;;;;;0.30;0.30;;;19.10;58.30;;;;;;5097961;28;20247;-74
2023/12/21 10:14:01;;;;;;;0.35;0.35;;;19.10;58.30;;;;;;5085563;28;20188;-74
2023/12/21 10:16:27;;;;;;;0.50;0.50;;;19.10;58.30;;;;;;5082942;28;20211;-74
2023/12/21 10:18:52;;;;;;;0.40;0.40;;;19.10;58.30;;;;;;5099416;28;20189;-74
2023/12/21 10:21:20;;;;;;;0.40;0.40;;;19.10;58.30;;;;;;5102496;28;20212;-74
2023/12/21 10:23:46;;;;;;;0.40;0.40;;;19.10;58.30;;;;;;5091696;28;20189;-74
2023/12/21 10:26:11;;;;;;;0.40;0.40;;;19.10;58.40;;;;;;5096891;28;20196;-74
2023/12/21 10:28:37;;;;;;;0.35;0.35;;;19.10;58.30;;;;;;5079836;28;20176;-74
2023/12/21 10:31:04;;;;;;;0.40;0.40;;;19.20;58.40;;;;;;5096642;28;20212;-74
2023/12/21 10:33:33;;;;;;;0.30;0.30;;;19.10;58.30;;;;;;5077011;28;20192;-73
2023/12/21 10:35:59;;;;;;;0.30;0.30;;;19.20;58.40;;;;;;5080317;28;20208;-74
2023/12/21 10:38:27;;;;;;;0.30;0.30;;;19.10;58.30;;;;;;5086479;28;20181;-73
2023/12/21 10:40:54;;;;;;;0.40;0.40;;;19.10;58.40;;;;;;5100373;28;20258;-74
2023/12/21 10:43:20;;;;;;;0.40;0.40;;;19.10;59.00;;;;;;5091351;28;20191;-74
2023/12/21 10:45:47;;;;;;;0.63;0.40;;;19.10;58.40;;;;;;5097033;28;20193;-73
2023/12/21 10:48:16;;;;;;;0.50;0.40;;;19.10;58.40;;;;;;5079210;28;20184;-73
2023/12/21 10:50:47;;;;;;;0.43;0.40;;;19.10;58.30;;;;;;5090941;28;20208;-73
2023/12/21 10:53:14;;;;;;;0.40;0.40;;;19.10;58.40;;;;;;5096058;28;20188;-77
2023/12/21 10:55:45;;;;;;;0.40;0.40;;;19.20;58.40;;;;;;5091836;28;20213;-73
2023/12/21 10:58:12;;;;;;;0.30;0.30;;;19.20;58.40;;;;;;5080540;28;20205;-73
2023/12/21 11:00:41;;;;;;;0.38;0.30;;;19.20;58.40;;;;;;5095337;28;20185;-74
2023/12/21 11:03:09;;;;;;;0.38;0.28;;;19.20;58.40;;;;;;5078455;28;20181;-74
2023/12/21 11:05:37;;;;;;;0.47;0.47;;;19.20;58.50;;;;;;5102237;28;20189;-73
2023/12/21 11:08:04;;;;;;;0.40;0.40;;;19.20;58.50;;;;;;5107187;28;20225;-73
2023/12/21 11:10:33;;;;;;;0.32;0.32;;;19.20;58.40;;;;;;5079395;28;20197;-72
2023/12/21 11:12:59;;;;;;;0.50;0.50;;;19.10;58.40;;;;;;5095212;28;20196;-74
2023/12/21 11:15:25;;;;;;;0.30;0.30;;;19.20;58.40;;;;;;5070251;28;20215;-74
2023/12/21 11:17:58;;;;;;;0.40;0.40;;;19.20;58.40;;;;;;5092395;28;20279;-74
2023/12/21 11:20:32;;;;;;;0.40;0.40;;;19.20;58.50;;;;;;5078866;28;20185;-73
2023/12/21 11:23:05;;;;;;;0.30;0.30;;;19.20;58.50;;;;;;5097167;28;20172;-72
2023/12/21 11:25:32;;;;;;;0.30;0.30;;;19.20;58.50;;;;;;5089388;28;20177;-74
2023/12/21 11:28:02;;;;;;;0.40;0.40;;;19.20;58.50;;;;;;5082693;28;20179;-74
2023/12/21 11:30:29;;;;;;;0.40;0.40;;;19.20;58.50;;;;;;5102619;28;20250;-74
2023/12/21 11:33:07;;;;;;;0.30;0.30;;;19.20;58.50;;;;;;5098540;28;20287;-75
2023/12/21 11:35:33;;;;;;;0.43;0.43;;;19.20;58.50;;;;;;5095187;28;20208;-76
2023/12/21 11:38:05;;;;;;;0.30;0.30;;;19.20;58.50;;;;;;5093257;28;20205;-75
2023/12/21 11:40:34;;;;;;;0.45;0.45;;;19.20;58.50;;;;;;5082983;28;20185;-73
2023/12/21 11:43:01;;;;;;;0.43;0.43;;;19.20;58.50;;;;;;5082104;28;20187;-74
2023/12/21 11:45:29;;;;;;;0.40;0.40;;;19.20;58.60;;;;;;5096555;28;20194;-74
2023/12/21 11:48:04;;;;;;;0.50;0.50;;;19.20;58.50;;;;;;5094287;28;20196;-74
2023/12/21 11:50:31;;;;;;;0.45;0.45;;;19.20;58.60;;;;;;5088703;28;20321;-75
2023/12/21 11:53:08;;;;;;;0.45;0.40;;;19.20;58.50;;;;;;5094537;28;20197;-73
2023/12/21 11:55:43;;;;;;;0.40;0.40;;;19.20;58.50;;;;;;5092409;28;20291;-74
2023/12/21 11:58:23;;;;;;;0.20;0.20;;;19.20;58.60;;;;;;5093404;28;20180;-72
2023/12/21 12:00:56;;;;;;;0.35;0.35;;;19.20;58.60;;;;;;5075211;28;20272;-73
2023/12/21 12:03:26;;;;;;;0.40;0.40;;;19.20;58.50;;;;;;5104384;27;20209;-72
2023/12/21 12:06:03;;;;;;;0.45;0.30;;;19.20;58.50;;;;;;5102788;28;20294;-73
2023/12/21 12:08:32;;;;;;;0.50;0.50;;;19.20;58.50;;;;;;5094084;28;20187;-73
2023/12/21 12:10:58;;;;;;;0.40;0.40;;;19.20;58.50;;;;;;5095546;28;20223;-74
2023/12/21 12:13:24;;;;;;;0.30;0.30;;;19.20;58.50;;;;;;5109020;28;20196;-72
2023/12/21 12:15:52;;;;;;;0.40;0.40;;;19.20;58.50;;;;;;5090032;28;20223;-72
2023/12/21 12:18:22;;;;;;;0.40;0.40;;;19.20;58.50;;;;;;5089348;28;20185;-72
2023/12/21 12:20:50;;;;;;;0.30;0.30;;;19.20;58.50;;;;;;5093328;28;20201;-72
2023/12/21 12:23:16;;;;;;;0.50;0.50;;;19.20;58.60;;;;;;5093113;28;20728;-73
2023/12/21 12:25:43;;;;;;;1.13;0.32;;;19.20;58.60;;;;;;5089415;28;20255;-74
2023/12/21 12:28:10;;;;;;;0.57;0.47;;;19.20;58.60;;;;;;5093493;28;20188;-73
2023/12/21 12:30:36;;;;;;;0.70;0.60;;;19.20;58.60;;;;;;5101534;28;20195;-74
2023/12/21 12:33:05;;;;;;;0.85;0.57;;;19.20;58.60;;;;;;5094872;28;20205;-73
2023/12/21 12:35:36;;;;;;;0.60;0.60;;;19.20;58.60;;;;;;5095158;28;20206;-73
2023/12/21 12:38:06;;;;;;;0.50;0.50;;;19.20;58.60;;;;;;5101372;28;20655;-72
2023/12/21 12:40:34;;;;;;;0.68;0.55;;;19.20;58.60;;;;;;5099941;28;20188;-72
2023/12/21 12:43:01;;;;;;;0.40;0.40;;;19.20;58.60;;;;;;5090757;28;20205;-73
2023/12/21 12:45:27;;;;;;;0.50;0.50;;;19.20;58.60;;;;;;5091535;28;20201;-73